Time;durP1;ratioP1;P1;durP2;ratioP2;P2;SDS_P1;SDS_P2;PMS_P1;PMS_P2;Temp;Humidity;BMP_temperature;BMP_pressure;BME280_temperature;BME280_humidity;BME280_pressure;Samples;Min_cycle;Max_cycle;Signal;HPM_P1;HPM_P2
2023/03/29 00:01:09;;;;;;;3.50;1.60;;;;;;;4.22;100.00;100887.69;6290591;28;20068;-86
2023/03/29 00:04:12;;;;;;;5.47;1.70;;;;;;;4.24;100.00;100878.22;6281832;28;20435;-86
2023/03/29 00:07:14;;;;;;;3.92;1.88;;;;;;;4.24;100.00;100875.66;6288353;28;20039;-86
2023/03/29 00:10:16;;;;;;;6.00;1.92;;;;;;;4.26;100.00;100871.28;6290509;28;20043;-86
2023/03/29 00:13:18;;;;;;;3.03;1.60;;;;;;;4.30;100.00;100868.50;6287992;28;20037;-86
2023/03/29 00:16:19;;;;;;;3.88;1.80;;;;;;;4.35;100.00;100863.16;6283254;28;20479;-85
2023/03/29 00:19:21;;;;;;;3.53;1.60;;;;;;;4.36;100.00;100864.81;6286623;28;20408;-85
2023/03/29 00:22:23;;;;;;;3.80;1.75;;;;;;;4.35;100.00;100859.75;6283920;28;20546;-85
2023/03/29 00:25:26;;;;;;;3.60;1.48;;;;;;;4.36;100.00;100866.56;6286155;28;20033;-85
2023/03/29 00:28:28;;;;;;;8.68;2.03;;;;;;;4.29;100.00;100855.75;6301885;28;20844;-85
2023/03/29 00:31:30;;;;;;;3.88;1.65;;;;;;;4.28;100.00;100859.25;6291564;28;20509;-85
2023/03/29 00:34:34;;;;;;;6.63;1.90;;;;;;;4.26;100.00;100855.91;6291444;28;20521;-85
2023/03/29 00:37:36;;;;;;;3.80;1.60;;;;;;;4.25;100.00;100855.09;6282191;28;20036;-87
2023/03/29 00:40:43;;;;;;;3.60;1.65;;;;;;;4.31;100.00;100848.84;6282082;28;20686;-87
2023/03/29 00:44:03;;;;;;;8.05;2.63;;;;;;;4.38;100.00;100841.69;6279769;28;20048;-87
2023/03/29 00:47:04;;;;;;;4.45;1.70;;;;;;;4.36;100.00;100843.50;6290489;28;20048;-85
2023/03/29 00:50:15;;;;;;;2.60;1.42;;;;;;;4.40;100.00;100845.03;6280253;28;20045;-85
2023/03/29 00:53:17;;;;;;;2.60;1.60;;;;;;;4.37;100.00;100847.69;6265254;28;20045;-85
2023/03/29 00:56:26;;;;;;;3.42;1.50;;;;;;;4.36;100.00;100839.19;6274926;28;20040;-85
2023/03/29 00:59:31;;;;;;;4.95;1.73;;;;;;;4.32;100.00;100830.84;6284289;28;20127;-85
2023/03/29 01:02:38;;;;;;;2.72;1.85;;;;;;;4.31;100.00;100839.41;6283000;28;20461;-85
2023/03/29 01:05:45;;;;;;;5.18;2.10;;;;;;;4.25;100.00;100832.03;6282723;28;20041;-85
2023/03/29 01:09:00;;;;;;;4.07;2.05;;;;;;;4.23;100.00;100826.13;6279012;28;20045;-85
2023/03/29 01:12:12;;;;;;;9.48;2.25;;;;;;;4.20;100.00;100815.19;6273539;28;20406;-86
2023/03/29 01:15:18;;;;;;;4.07;2.22;;;;;;;4.15;100.00;100815.44;6279660;28;20040;-86
2023/03/29 01:18:21;;;;;;;3.03;1.88;;;;;;;4.17;100.00;100808.47;6285347;28;20047;-86
2023/03/29 01:21:36;;;;;;;3.58;1.70;;;;;;;4.15;100.00;100807.75;6296737;28;20535;-86
2023/03/29 01:25:14;;;;;;;4.03;2.10;;;;;;;4.10;100.00;100805.41;6282323;28;20473;-85
2023/03/29 01:28:21;;;;;;;5.68;2.03;;;;;;;4.05;100.00;100794.53;6277406;28;20504;-85
2023/03/29 01:31:35;;;;;;;4.70;2.50;;;;;;;4.08;100.00;100796.97;6286149;28;20071;-85
2023/03/29 01:34:40;;;;;;;6.68;2.85;;;;;;;4.04;100.00;100800.56;6269745;28;20068;-86
2023/03/29 01:37:56;;;;;;;5.60;2.95;;;;;;;4.02;100.00;100791.28;6281084;28;20055;-85
2023/03/29 01:40:57;;;;;;;4.00;2.55;;;;;;;4.01;100.00;100794.75;6276586;28;20056;-85
2023/03/29 01:44:08;;;;;;;3.58;2.70;;;;;;;4.00;100.00;100793.09;6281748;28;20087;-85
2023/03/29 01:47:41;;;;;;;5.15;2.45;;;;;;;3.96;100.00;100799.28;6282435;28;20044;-86
2023/03/29 01:50:48;;;;;;;5.30;3.10;;;;;;;3.92;100.00;100801.13;6276183;28;20473;-85
2023/03/29 01:53:58;;;;;;;7.97;3.22;;;;;;;3.96;100.00;100802.66;6280847;28;20198;-85
2023/03/29 01:57:03;;;;;;;3.83;2.80;;;;;;;3.95;100.00;100789.91;6282386;28;20438;-85
2023/03/29 02:00:09;;;;;;;4.80;2.90;;;;;;;3.94;100.00;100786.53;6279090;28;20078;-85
2023/03/29 02:03:16;;;;;;;4.70;2.63;;;;;;;3.92;100.00;100778.09;6280490;28;20053;-85
2023/03/29 02:06:22;;;;;;;7.25;3.05;;;;;;;3.94;100.00;100783.13;6295393;28;20105;-85
2023/03/29 02:09:25;;;;;;;3.90;2.55;;;;;;;3.95;100.00;100774.53;6282571;28;20119;-85
2023/03/29 02:12:28;;;;;;;4.75;2.80;;;;;;;3.94;100.00;100766.03;6261276;28;20064;-85
2023/03/29 02:15:30;;;;;;;3.78;2.58;;;;;;;3.95;100.00;100756.63;6287328;28;20611;-85
2023/03/29 02:18:34;;;;;;;4.40;2.28;;;;;;;3.96;100.00;100758.28;6282128;28;20053;-85
2023/03/29 02:21:47;;;;;;;4.80;2.92;;;;;;;3.96;100.00;100761.69;6286248;28;20119;-85
2023/03/29 02:24:50;;;;;;;9.18;2.72;;;;;;;3.98;100.00;100752.19;6281153;28;20040;-85
2023/03/29 02:27:54;;;;;;;5.30;2.88;;;;;;;3.94;100.00;100758.34;6271020;28;20102;-85
2023/03/29 02:31:18;;;;;;;5.22;2.85;;;;;;;3.94;100.00;100753.25;6284396;28;20063;-85
2023/03/29 02:34:48;;;;;;;3.97;2.20;;;;;;;3.89;100.00;100747.50;6291372;28;20044;-85
2023/03/29 02:37:53;;;;;;;3.72;2.50;;;;;;;3.86;100.00;100745.09;6290610;28;20517;-85
2023/03/29 02:40:57;;;;;;;4.53;2.80;;;;;;;3.85;100.00;100746.84;6258833;28;20466;-85
2023/03/29 02:44:01;;;;;;;4.50;2.53;;;;;;;3.87;100.00;100741.63;6287913;28;20047;-85
2023/03/29 02:47:21;;;;;;;3.85;2.72;;;;;;;3.87;100.00;100739.88;6273495;28;20628;-85
2023/03/29 02:50:30;;;;;;;4.00;2.83;;;;;;;3.86;100.00;100735.69;6266567;28;20499;-85
2023/03/29 02:53:41;;;;;;;4.10;2.40;;;;;;;3.87;100.00;100731.38;6281460;28;20048;-85
2023/03/29 02:57:03;;;;;;;4.18;2.50;;;;;;;3.90;100.00;100731.25;6278397;28;20190;-85
2023/03/29 03:00:08;;;;;;;9.95;3.25;;;;;;;3.97;100.00;100724.91;6300499;28;20534;-85
2023/03/29 03:03:11;;;;;;;4.20;2.88;;;;;;;3.87;100.00;100721.13;6292939;28;20055;-85
2023/03/29 03:06:14;;;;;;;4.13;2.53;;;;;;;3.84;100.00;100726.41;6277343;28;20036;-85
2023/03/29 03:09:16;;;;;;;5.03;2.92;;;;;;;3.85;100.00;100715.25;6287218;28;20402;-85
2023/03/29 03:12:20;;;;;;;4.10;2.70;;;;;;;3.85;100.00;100712.69;6291134;28;20634;-85
2023/03/29 03:15:22;;;;;;;6.55;3.38;;;;;;;3.85;100.00;100707.56;6290531;28;20044;-85
2023/03/29 03:18:23;;;;;;;4.88;3.33;;;;;;;3.84;100.00;100705.94;6292664;28;20139;-85
2023/03/29 03:21:27;;;;;;;5.15;3.03;;;;;;;3.82;100.00;100700.03;6292108;28;20043;-85
2023/03/29 03:24:28;;;;;;;7.95;3.85;;;;;;;3.84;100.00;100693.13;6288137;28;20059;-84
2023/03/29 03:27:32;;;;;;;4.65;2.95;;;;;;;3.83;100.00;100684.63;6288553;28;20075;-85
2023/03/29 03:30:34;;;;;;;3.50;2.65;;;;;;;3.86;100.00;100693.88;6273351;28;20055;-85
2023/03/29 03:33:51;;;;;;;5.50;3.08;;;;;;;3.89;100.00;100683.50;6279428;28;20125;-85
2023/03/29 03:37:19;;;;;;;5.07;3.33;;;;;;;3.89;100.00;100671.50;6280043;28;20067;-85
2023/03/29 03:40:21;;;;;;;4.95;3.17;;;;;;;3.93;100.00;100673.94;6309900;28;20490;-85
2023/03/29 03:43:23;;;;;;;6.00;3.03;;;;;;;3.90;100.00;100669.81;6283568;28;20049;-85
2023/03/29 03:46:25;;;;;;;4.28;3.55;;;;;;;3.89;100.00;100665.56;6323667;28;20043;-85
2023/03/29 03:49:31;;;;;;;5.15;3.65;;;;;;;3.88;100.00;100661.34;6289977;28;20048;-85
2023/03/29 03:52:33;;;;;;;6.80;3.42;;;;;;;3.83;100.00;100666.69;6286556;28;20044;-85
2023/03/29 03:55:35;;;;;;;6.75;4.00;;;;;;;3.86;100.00;100655.47;6288064;28;20051;-85
2023/03/29 03:58:43;;;;;;;6.63;3.70;;;;;;;3.80;100.00;100656.63;6289665;28;20052;-85
2023/03/29 04:01:45;;;;;;;4.78;3.85;;;;;;;3.77;100.00;100661.88;6279499;28;20052;-85
2023/03/29 04:04:50;;;;;;;7.80;3.67;;;;;;;3.74;100.00;100664.56;6289202;28;20044;-85
2023/03/29 04:07:54;;;;;;;5.05;3.40;;;;;;;3.75;100.00;100662.84;6276058;28;20052;-84
2023/03/29 04:11:32;;;;;;;7.78;3.40;;;;;;;3.87;100.00;100662.25;6263428;28;20045;-85
2023/03/29 04:14:34;;;;;;;5.75;3.78;;;;;;;3.90;100.00;100654.44;6260393;28;20128;-85
2023/03/29 04:17:42;;;;;;;6.45;4.30;;;;;;;3.85;100.00;100646.97;6232085;28;20077;-85
2023/03/29 04:21:03;;;;;;;;;;;;;;;3.82;100.00;100659.91;6250211;28;20487;-85
2023/03/29 04:24:07;;;;;;;6.43;3.97;;;;;;;3.80;100.00;100654.06;6242555;28;19932;-85
2023/03/29 04:27:12;;;;;;;6.85;4.35;;;;;;;3.76;100.00;100647.41;6258272;28;20041;-85
2023/03/29 04:30:13;;;;;;;6.22;4.15;;;;;;;3.75;100.00;100642.34;6241244;28;20045;-85
2023/03/29 04:33:45;;;;;;;5.15;4.03;;;;;;;3.77;100.00;100653.34;6239872;28;20061;-85
2023/03/29 04:36:51;;;;;;;6.53;3.72;;;;;;;3.74;100.00;100648.38;6226007;28;20052;-85
2023/03/29 04:39:59;;;;;;;5.90;4.30;;;;;;;3.76;100.00;100649.16;6258663;28;20502;-85
2023/03/29 04:43:06;;;;;;;6.82;4.20;;;;;;;3.80;100.00;100655.75;6248832;28;20075;-85
2023/03/29 04:46:14;;;;;;;6.22;4.72;;;;;;;3.81;100.00;100652.31;6246848;28;20051;-85
2023/03/29 04:49:34;;;;;;;9.07;4.80;;;;;;;3.82;100.00;100654.78;6286144;28;20414;-85
2023/03/29 04:52:40;;;;;;;7.10;4.05;;;;;;;3.88;100.00;100646.81;6286313;28;20051;-85
2023/03/29 04:55:45;;;;;;;7.30;4.53;;;;;;;3.91;100.00;100647.56;6285307;28;20506;-85
2023/03/29 04:58:52;;;;;;;8.68;4.25;;;;;;;3.89;100.00;100645.06;6287022;28;20048;-85
2023/03/29 05:01:55;;;;;;;7.72;4.50;;;;;;;3.88;100.00;100634.00;6285523;28;20040;-85
2023/03/29 05:04:57;;;;;;;11.07;4.60;;;;;;;3.92;100.00;100637.25;6286617;28;20154;-85
2023/03/29 05:07:59;;;;;;;7.53;4.47;;;;;;;3.91;100.00;100635.59;6285407;28;20053;-85
2023/03/29 05:11:09;;;;;;;7.35;4.45;;;;;;;3.92;100.00;100628.72;6288705;28;20149;-85
2023/03/29 05:14:11;;;;;;;5.85;4.45;;;;;;;3.94;100.00;100624.38;6285164;28;20044;-85
2023/03/29 05:17:13;;;;;;;6.28;4.25;;;;;;;4.00;100.00;100624.06;6285869;28;20044;-85
2023/03/29 05:20:16;;;;;;;7.18;4.70;;;;;;;4.00;100.00;100609.53;6286960;28;20051;-85
2023/03/29 05:23:21;;;;;;;9.52;4.65;;;;;;;4.04;100.00;100610.19;6286733;28;20229;-85
2023/03/29 05:26:50;;;;;;;8.48;4.80;;;;;;;4.04;100.00;100613.59;6233684;28;20053;-85
2023/03/29 05:29:53;;;;;;;8.95;4.75;;;;;;;4.06;100.00;100609.22;6217089;28;20527;-84
2023/03/29 05:33:01;;;;;;;8.10;4.55;;;;;;;4.06;100.00;100598.97;6217208;28;20057;-85
2023/03/29 05:36:07;;;;;;;8.25;4.57;;;;;;;4.09;100.00;100598.81;6216709;28;20205;-85
2023/03/29 05:39:12;;;;;;;6.20;4.50;;;;;;;4.17;100.00;100592.47;6216943;28;20518;-85
2023/03/29 05:42:18;;;;;;;9.25;5.13;;;;;;;4.16;100.00;100595.94;6206162;28;20041;-85
2023/03/29 05:45:28;;;;;;;7.57;4.75;;;;;;;4.20;100.00;100599.97;6226419;28;20045;-85
2023/03/29 05:48:34;;;;;;;7.72;4.97;;;;;;;4.21;100.00;100597.34;6219603;28;20049;-85
2023/03/29 05:51:36;;;;;;;7.57;4.70;;;;;;;4.29;100.00;100590.09;6221999;28;20061;-85
2023/03/29 05:54:39;;;;;;;9.25;4.75;;;;;;;4.37;100.00;100587.13;6215844;28;20598;-85
2023/03/29 05:57:41;;;;;;;8.73;5.05;;;;;;;4.42;100.00;100594.59;6233217;28;20164;-85
2023/03/29 06:00:43;;;;;;;8.85;5.15;;;;;;;4.45;100.00;100594.44;6232619;28;20053;-85
2023/03/29 06:04:05;;;;;;;7.20;4.97;;;;;;;4.48;100.00;100592.53;6255394;28;20060;-85
2023/03/29 06:07:15;;;;;;;7.28;5.07;;;;;;;4.53;100.00;100582.88;6284406;28;20056;-85
2023/03/29 06:10:24;;;;;;;7.80;5.25;;;;;;;4.59;100.00;100580.88;6285206;28;20048;-85
2023/03/29 06:13:33;;;;;;;7.45;5.10;;;;;;;4.69;100.00;100579.47;6284691;28;20052;-85
2023/03/29 06:16:36;;;;;;;8.25;5.05;;;;;;;4.76;100.00;100591.06;6268611;28;20051;-85
2023/03/29 06:19:39;;;;;;;6.95;5.20;;;;;;;4.87;100.00;100578.50;6286622;28;20600;-85
2023/03/29 06:22:42;;;;;;;7.65;5.18;;;;;;;4.96;100.00;100584.84;6285956;28;20418;-85
2023/03/29 06:25:46;;;;;;;11.50;5.32;;;;;;;5.05;100.00;100586.09;6285099;28;20158;-85
2023/03/29 06:28:47;;;;;;;8.57;5.28;;;;;;;5.27;100.00;100588.31;6284741;28;20055;-85
2023/03/29 06:31:53;;;;;;;7.30;5.45;;;;;;;5.51;100.00;100583.53;6284431;28;20179;-85
2023/03/29 06:35:15;;;;;;;6.00;4.40;;;;;;;5.70;100.00;100584.13;6286248;28;20537;-85
2023/03/29 06:38:25;;;;;;;7.40;5.18;;;;;;;5.94;100.00;100589.63;6268959;28;20131;-84
2023/03/29 06:41:43;;;;;;;5.72;4.25;;;;;;;6.15;100.00;100584.13;6288716;28;20547;-85
2023/03/29 06:44:58;;;;;;;8.07;4.72;;;;;;;6.32;100.00;100586.50;6275498;28;20537;-85
2023/03/29 06:48:02;;;;;;;8.45;4.70;;;;;;;6.48;100.00;100581.25;6291032;28;20555;-85
2023/03/29 06:51:06;;;;;;;6.90;4.22;;;;;;;6.57;100.00;100588.41;6290777;28;20431;-85
2023/03/29 06:54:08;;;;;;;6.68;4.60;;;;;;;6.67;100.00;100578.41;6291395;28;20047;-85
2023/03/29 06:57:15;;;;;;;5.90;4.30;;;;;;;6.77;100.00;100589.75;6288962;28;20041;-85
2023/03/29 07:00:26;;;;;;;6.78;4.88;;;;;;;6.92;100.00;100584.59;6288754;28;20051;-84
2023/03/29 07:03:51;;;;;;;6.78;4.72;;;;;;;6.88;100.00;100592.50;6282691;28;20046;-85
2023/03/29 07:07:01;;;;;;;6.70;4.05;;;;;;;6.87;100.00;100590.00;6290747;28;20413;-85
2023/03/29 07:10:06;;;;;;;6.05;4.32;;;;;;;6.82;100.00;100589.47;6290469;28;20513;-85
2023/03/29 07:13:26;;;;;;;6.35;4.30;;;;;;;6.77;100.00;100586.38;6291444;28;20048;-85
2023/03/29 07:16:31;;;;;;;5.28;4.25;;;;;;;6.66;100.00;100587.03;6272918;28;20045;-85
2023/03/29 07:19:42;;;;;;;6.60;4.47;;;;;;;6.57;100.00;100587.59;6290481;28;20059;-85
2023/03/29 07:23:04;;;;;;;14.32;7.57;;;;;;;6.56;100.00;100586.78;6290578;28;20048;-85
2023/03/29 07:26:06;;;;;;;8.15;4.50;;;;;;;6.64;100.00;100588.88;6289089;28;20051;-85
2023/03/29 07:29:09;;;;;;;9.05;5.07;;;;;;;6.79;100.00;100584.53;6291568;28;20048;-85
2023/03/29 07:32:11;;;;;;;7.53;4.30;;;;;;;6.87;100.00;100585.69;6289145;28;20055;-84
2023/03/29 07:35:19;;;;;;;8.20;4.50;;;;;;;6.92;100.00;100593.13;6292543;28;20040;-85
2023/03/29 07:38:21;;;;;;;6.05;4.40;;;;;;;6.91;100.00;100596.63;6271982;28;20067;-85
2023/03/29 07:41:31;;;;;;;6.85;4.50;;;;;;;7.00;100.00;100593.47;6290254;28;20053;-85
2023/03/29 07:44:40;;;;;;;6.47;4.72;;;;;;;7.06;100.00;100597.41;6288164;28;20044;-85
2023/03/29 07:47:43;;;;;;;6.90;4.35;;;;;;;7.10;100.00;100602.28;6289238;28;20414;-85
2023/03/29 07:50:45;;;;;;;6.85;4.30;;;;;;;7.17;100.00;100605.28;6289173;28;20055;-85
2023/03/29 07:53:48;;;;;;;8.23;4.55;;;;;;;7.17;100.00;100607.84;6287733;28;20041;-85
2023/03/29 07:57:16;;;;;;;5.88;4.25;;;;;;;7.20;100.00;100614.53;6228611;28;20061;-85
2023/03/29 08:00:27;;;;;;;5.95;4.40;;;;;;;7.25;100.00;100617.66;6225273;28;20054;-84
2023/03/29 08:03:48;;;;;;;7.53;4.53;;;;;;;7.34;100.00;100619.66;6215931;28;20091;-85
2023/03/29 08:06:51;;;;;;;5.82;4.13;;;;;;;7.49;100.00;100615.28;6207386;28;20038;-85
2023/03/29 08:09:55;;;;;;;6.13;4.30;;;;;;;7.68;100.00;100607.19;6226498;28;20412;-85
2023/03/29 08:13:10;;;;;;;7.28;4.20;;;;;;;7.90;100.00;100607.41;6232222;28;20049;-85
2023/03/29 08:16:28;;;;;;;7.45;4.20;;;;;;;8.05;100.00;100604.72;6207383;28;20060;-85
2023/03/29 08:19:38;;;;;;;6.70;4.18;;;;;;;8.15;100.00;100603.19;6218865;28;20056;-85
2023/03/29 08:22:41;;;;;;;5.43;3.63;;;;;;;8.17;100.00;100599.59;6215386;28;20041;-85
2023/03/29 08:26:02;;;;;;;5.22;3.95;;;;;;;7.99;100.00;100593.88;6233382;28;20053;-85
2023/03/29 08:29:05;;;;;;;4.68;3.90;;;;;;;7.98;100.00;100605.13;6196447;28;20464;-85
2023/03/29 08:32:07;;;;;;;5.60;3.92;;;;;;;7.96;100.00;100599.25;6222468;28;20038;-85
2023/03/29 08:35:09;;;;;;;7.97;4.65;;;;;;;7.98;100.00;100599.16;6282384;28;20090;-85
2023/03/29 08:38:23;;;;;;;6.82;3.70;;;;;;;8.15;100.00;100592.88;6288131;28;20041;-85
2023/03/29 08:41:43;;;;;;;7.05;4.10;;;;;;;8.26;100.00;100592.97;6292413;28;20048;-85
2023/03/29 08:44:45;;;;;;;6.53;4.15;;;;;;;8.29;100.00;100592.75;6290671;28;20036;-85
2023/03/29 08:48:10;;;;;;;5.32;3.42;;;;;;;8.39;100.00;100593.78;6288955;28;20150;-85
2023/03/29 08:51:40;;;;;;;7.53;3.90;;;;;;;8.46;100.00;100593.38;6289649;28;20138;-85
2023/03/29 08:54:45;;;;;;;5.43;4.10;;;;;;;8.57;100.00;100596.03;6299069;28;20049;-85
2023/03/29 08:58:07;;;;;;;5.75;3.97;;;;;;;8.84;100.00;100588.13;6288216;28;20128;-85
2023/03/29 09:01:10;;;;;;;7.03;3.47;;;;;;;9.18;100.00;100581.38;6290698;28;20037;-85
2023/03/29 09:04:41;;;;;;;7.88;4.07;;;;;;;9.45;100.00;100582.88;6290859;28;20067;-85
2023/03/29 09:08:01;;;;;;;6.85;3.83;;;;;;;9.85;100.00;100585.09;6289507;28;20173;-86
2023/03/29 09:11:22;;;;;;;8.20;4.30;;;;;;;10.14;100.00;100578.56;6290250;28;20044;-85
2023/03/29 09:14:51;;;;;;;5.70;3.78;;;;;;;10.17;100.00;100592.19;6276166;28;20048;-85
2023/03/29 09:18:05;;;;;;;5.13;3.72;;;;;;;10.08;100.00;100589.34;6279304;28;20524;-85
2023/03/29 09:21:16;;;;;;;7.32;4.70;;;;;;;9.90;100.00;100590.75;6291961;28;20560;-85
2023/03/29 09:24:39;;;;;;;6.65;3.63;;;;;;;9.58;100.00;100591.38;6294329;28;20053;-84
2023/03/29 09:28:03;;;;;;;7.90;3.97;;;;;;;9.27;100.00;100585.06;6286274;28;20471;-84
2023/03/29 09:31:34;;;;;;;6.72;4.18;;;;;;;8.96;100.00;100586.44;6288827;28;20093;-84
2023/03/29 09:34:48;;;;;;;6.20;3.92;;;;;;;8.84;100.00;100583.81;6286212;28;20071;-83
2023/03/29 09:37:54;;;;;;;4.97;3.70;;;;;;;8.90;100.00;100595.44;6287963;28;20133;-84
2023/03/29 09:41:03;;;;;;;5.03;4.03;;;;;;;8.96;100.00;100587.25;6284467;28;20418;-84
2023/03/29 09:44:12;;;;;;;5.82;3.67;;;;;;;9.07;100.00;100594.25;6285577;28;20071;-84
2023/03/29 09:47:39;;;;;;;6.80;4.13;;;;;;;9.04;100.00;100590.13;6280906;28;20048;-84
2023/03/29 09:50:50;;;;;;;5.55;3.90;;;;;;;9.01;100.00;100585.16;6289267;28;20040;-84
2023/03/29 09:53:55;;;;;;;9.00;4.32;;;;;;;8.96;100.00;100583.84;6290779;28;20043;-84
2023/03/29 09:57:32;;;;;;;8.38;4.43;;;;;;;8.92;100.00;100580.66;6233398;28;20073;-84
2023/03/29 10:00:35;;;;;;;6.72;4.00;;;;;;;9.15;100.00;100580.78;6245403;28;20053;-84
2023/03/29 10:03:38;;;;;;;7.13;3.70;;;;;;;9.26;100.00;100579.03;6233344;28;20085;-84
2023/03/29 10:06:51;;;;;;;7.30;3.70;;;;;;;9.42;100.00;100568.44;6233801;28;20119;-84
2023/03/29 10:09:55;;;;;;;8.18;4.07;;;;;;;9.63;100.00;100571.19;6234613;28;20192;-84
2023/03/29 10:13:08;;;;;;;5.93;4.25;;;;;;;9.73;100.00;100560.97;6238832;28;20053;-84
2023/03/29 10:16:27;;;;;;;6.18;3.80;;;;;;;9.96;100.00;100553.25;6234653;28;20115;-84
2023/03/29 10:19:34;;;;;;;4.50;3.40;;;;;;;10.18;100.00;100561.03;6255906;28;20060;-84
2023/03/29 10:22:36;;;;;;;5.97;3.50;;;;;;;10.29;100.00;100570.59;6235376;28;20214;-84
2023/03/29 10:25:39;;;;;;;5.57;3.72;;;;;;;10.38;100.00;100569.88;6243055;28;20702;-84
2023/03/29 10:28:43;;;;;;;6.97;3.50;;;;;;;10.39;100.00;100570.72;6237874;28;20047;-84
2023/03/29 10:31:46;;;;;;;5.80;3.97;;;;;;;10.67;100.00;100562.41;6270845;28;20075;-84
2023/03/29 10:34:50;;;;;;;7.85;3.55;;;;;;;10.83;100.00;100571.56;6298816;28;20083;-84
2023/03/29 10:37:55;;;;;;;5.10;3.65;;;;;;;10.76;100.00;100564.28;6293060;28;20120;-84
2023/03/29 10:41:11;;;;;;;5.28;3.33;;;;;;;10.70;100.00;100566.53;6285871;28;20044;-84
2023/03/29 10:44:35;;;;;;;5.68;3.80;;;;;;;10.73;100.00;100543.84;6285691;28;20431;-84
2023/03/29 10:47:44;;;;;;;7.28;3.75;;;;;;;10.90;100.00;100552.00;6284828;28;20442;-84
2023/03/29 10:50:51;;;;;;;7.55;4.10;;;;;;;10.89;100.00;100548.59;6289816;28;20047;-84
2023/03/29 10:53:55;;;;;;;5.07;3.58;;;;;;;10.84;100.00;100537.78;6284349;28;20040;-84
2023/03/29 10:57:09;;;;;;;9.18;4.53;;;;;;;10.87;100.00;100540.13;6290717;28;20702;-84
2023/03/29 11:00:26;;;;;;;5.05;3.92;;;;;;;11.03;100.00;100533.72;6291092;28;20036;-84
2023/03/29 11:04:22;;;;;;;6.57;4.10;;;;;;;11.35;100.00;100533.69;6301690;28;20048;-84
2023/03/29 11:07:43;;;;;;;7.30;4.30;;;;;;;11.67;100.00;100531.00;6241769;28;20076;-84
2023/03/29 11:10:52;;;;;;;7.20;4.63;;;;;;;11.85;100.00;100528.66;6231426;28;20410;-84
2023/03/29 11:14:32;;;;;;;8.40;4.20;;;;;;;11.97;100.00;100521.63;6234526;28;20156;-84
2023/03/29 11:17:53;;;;;;;6.45;4.30;;;;;;;12.23;100.00;100527.19;6238211;28;20462;-84
2023/03/29 11:21:13;;;;;;;6.45;4.20;;;;;;;12.48;100.00;100521.53;6246025;28;20068;-84
2023/03/29 11:24:32;;;;;;;6.95;4.18;;;;;;;12.64;100.00;100515.81;6229112;28;20061;-84
2023/03/29 11:28:03;;;;;;;9.07;4.53;;;;;;;12.79;100.00;100531.00;6228496;28;20065;-84
2023/03/29 11:31:14;;;;;;;;;;;;;;;13.02;100.00;100527.19;6251965;28;20130;-85
2023/03/29 11:34:51;;;;;;;8.45;4.70;;;;;;;13.24;100.00;100522.66;6243707;28;19927;-87
2023/03/29 11:38:38;;;;;;;7.45;4.10;;;;;;;13.43;100.00;100520.06;6243990;28;20494;-87
2023/03/29 11:41:43;;;;;;;9.60;4.63;;;;;;;13.57;100.00;100514.41;6256166;28;20037;-86
2023/03/29 11:44:50;;;;;;;8.80;4.93;;;;;;;13.26;100.00;100518.13;6289838;28;20051;-86
2023/03/29 11:47:58;;;;;;;8.35;4.43;;;;;;;13.07;100.00;100514.59;6288564;28;20048;-86
2023/03/29 11:51:17;;;;;;;8.55;4.90;;;;;;;13.31;100.00;100496.00;6250975;28;20095;-86
2023/03/29 11:54:44;;;;;;;9.90;5.75;;;;;;;13.50;100.00;100502.94;6288287;28;20418;-86
2023/03/29 11:58:01;;;;;;;8.98;4.97;;;;;;;13.70;100.00;100515.91;6284550;28;20550;-86
2023/03/29 12:01:09;;;;;;;6.28;4.35;;;;;;;13.65;100.00;100508.50;6286181;28;20071;-86
2023/03/29 12:04:21;;;;;;;7.97;4.80;;;;;;;13.66;100.00;100504.94;6289632;28;20041;-86
2023/03/29 12:07:34;;;;;;;7.28;4.75;;;;;;;13.73;100.00;100507.81;6283752;28;20067;-86
2023/03/29 12:10:46;;;;;;;10.23;5.03;;;;;;;13.72;100.00;100500.97;6291784;28;20603;-86
2023/03/29 12:14:01;;;;;;;7.97;4.65;;;;;;;13.66;100.00;100498.91;6288854;28;20123;-86
2023/03/29 12:17:11;;;;;;;7.63;4.65;;;;;;;14.09;100.00;100494.94;6276671;28;20040;-87
2023/03/29 12:20:37;;;;;;;7.10;4.38;;;;;;;14.15;100.00;100495.16;6292366;28;20051;-86
2023/03/29 12:23:43;;;;;;;7.38;4.38;;;;;;;13.92;100.00;100486.91;6272648;28;20725;-86
2023/03/29 12:26:52;;;;;;;6.95;4.00;;;;;;;13.65;100.00;100490.31;6291814;28;20168;-86
2023/03/29 12:30:30;;;;;;;6.63;4.28;;;;;;;13.42;100.00;100482.03;6287472;28;20044;-87
2023/03/29 12:33:42;;;;;;;6.75;4.32;;;;;;;13.15;100.00;100483.53;6234453;28;20061;-88
2023/03/29 12:37:51;;;;;;;6.50;4.68;;;;;;;13.05;100.00;100490.53;6283691;28;20581;-87
2023/03/29 12:41:27;;;;;;;6.05;4.22;;;;;;;12.68;100.00;100498.19;6198746;28;20093;-87
2023/03/29 12:44:32;;;;;;;5.63;3.85;;;;;;;12.32;100.00;100507.41;6240084;28;20413;-87
2023/03/29 12:47:50;;;;;;;7.07;4.10;;;;;;;12.01;100.00;100512.66;6283209;28;20059;-88
2023/03/29 12:51:05;;;;;;;4.65;4.00;;;;;;;11.71;100.00;100503.06;6264744;28;20526;-88
2023/03/29 12:54:16;;;;;;;5.53;4.25;;;;;;;12.01;100.00;100507.47;6284696;28;20047;-88
2023/03/29 12:57:24;;;;;;;4.88;4.10;;;;;;;12.10;100.00;100511.88;6285970;28;20051;-88
2023/03/29 13:00:41;;;;;;;5.43;3.67;;;;;;;11.76;100.00;100506.91;6281343;28;20055;-87
2023/03/29 13:03:54;;;;;;;5.57;4.70;;;;;;;11.60;100.00;100502.19;6297741;28;20583;-88
2023/03/29 13:07:07;;;;;;;6.88;4.70;;;;;;;11.61;100.00;100500.44;6266202;28;20068;-88
2023/03/29 13:10:30;;;;;;;4.45;4.00;;;;;;;11.83;100.00;100499.44;6288821;28;20044;-88
2023/03/29 13:13:35;;;;;;;4.93;4.40;;;;;;;11.97;100.00;100496.50;6275933;28;20624;-88
2023/03/29 13:16:39;;;;;;;5.70;4.00;;;;;;;12.04;100.00;100489.03;6284417;28;20032;-89
2023/03/29 13:19:58;;;;;;;4.25;3.88;;;;;;;11.97;100.00;100480.13;6288381;28;20337;-88
2023/03/29 13:23:35;;;;;;;5.72;4.18;;;;;;;11.91;100.00;100481.47;6289713;28;20317;-88
2023/03/29 13:26:52;;;;;;;5.57;4.38;;;;;;;12.15;100.00;100482.91;6290076;28;20049;-88
2023/03/29 13:30:31;;;;;;;5.60;4.50;;;;;;;12.49;100.00;100473.00;6281552;28;20469;-88
2023/03/29 13:33:58;;;;;;;6.68;4.72;;;;;;;12.55;100.00;100475.09;6286163;28;20135;-88
2023/03/29 13:37:26;;;;;;;6.30;5.10;;;;;;;13.05;100.00;100461.94;6293745;28;20589;-89
2023/03/29 13:40:28;;;;;;;5.55;4.65;;;;;;;13.20;100.00;100458.91;6282484;28;20056;-89
2023/03/29 13:43:36;;;;;;;6.28;4.97;;;;;;;13.12;100.00;100451.81;6281875;28;20032;-88
2023/03/29 13:46:41;;;;;;;7.15;5.28;;;;;;;13.00;100.00;100453.75;6278313;28;20043;-89
2023/03/29 13:49:50;;;;;;;7.88;4.85;;;;;;;12.63;100.00;100459.63;6291974;28;20041;-88
2023/03/29 13:53:02;;;;;;;7.88;5.13;;;;;;;12.24;100.00;100456.97;6282124;28;20076;-89
2023/03/29 13:56:09;;;;;;;7.03;5.00;;;;;;;11.94;100.00;100449.28;6296385;28;20045;-88
2023/03/29 13:59:24;;;;;;;7.30;5.47;;;;;;;11.54;100.00;100444.84;6283820;28;20056;-88
2023/03/29 14:02:44;;;;;;;6.45;4.88;;;;;;;11.28;100.00;100453.03;6295336;28;20509;-88
2023/03/29 14:05:56;;;;;;;6.03;4.80;;;;;;;11.16;100.00;100443.69;6288136;28;20043;-88
2023/03/29 14:09:03;;;;;;;7.57;5.60;;;;;;;11.20;100.00;100445.06;6287101;28;20063;-89
2023/03/29 14:12:09;;;;;;;7.15;5.43;;;;;;;11.27;100.00;100441.03;6287853;28;20503;-88
2023/03/29 14:15:36;;;;;;;7.00;5.32;;;;;;;11.40;100.00;100444.25;6283968;28;20460;-88
2023/03/29 14:18:40;;;;;;;6.43;4.72;;;;;;;11.58;100.00;100448.84;6282984;28;20051;-89
2023/03/29 14:21:45;;;;;;;8.77;4.90;;;;;;;11.52;100.00;100438.97;6280585;28;20052;-88
2023/03/29 14:24:52;;;;;;;7.43;4.93;;;;;;;11.35;100.00;100442.97;6289925;28;20049;-89
2023/03/29 14:27:54;;;;;;;5.90;5.30;;;;;;;11.34;100.00;100434.38;6271941;28;20135;-88
2023/03/29 14:31:00;;;;;;;7.25;4.97;;;;;;;11.54;100.00;100430.13;6286198;28;20039;-88
2023/03/29 14:34:05;;;;;;;6.30;5.15;;;;;;;11.91;100.00;100431.38;6283497;28;20044;-88
2023/03/29 14:37:13;;;;;;;5.15;4.65;;;;;;;12.23;100.00;100436.38;6276714;28;20555;-89
2023/03/29 14:40:18;;;;;;;9.70;4.57;;;;;;;12.42;100.00;100436.41;6294613;28;20521;-88
2023/03/29 14:43:22;;;;;;;5.25;4.25;;;;;;;12.36;100.00;100434.34;6294881;28;20486;-89
2023/03/29 14:46:25;;;;;;;5.55;4.35;;;;;;;12.09;100.00;100427.19;6290958;28;20493;-88